METAR Data
IDs: Format: Raw Decoded Include TAF

Data at: 0201 UTC 25 Feb 2021

LFSI 250130Z AUTO 10004KT CAVOK 08/02 Q1028